createdAt,value
2022-11-25T00:02:46.048Z,8.30
2022-11-25T00:05:51.744Z,8.30
2022-11-25T00:08:57.583Z,8.40
2022-11-25T00:12:01.296Z,8.40
2022-11-25T00:15:05.949Z,8.40
2022-11-25T00:18:09.615Z,8.40
2022-11-25T00:21:17.868Z,8.40
2022-11-25T00:24:21.527Z,8.50
2022-11-25T00:27:25.270Z,8.50
2022-11-25T00:30:28.965Z,8.50
2022-11-25T00:33:32.670Z,8.60
2022-11-25T00:36:39.308Z,8.60
2022-11-25T00:39:43.001Z,8.60
2022-11-25T00:42:59.844Z,8.60
2022-11-25T00:46:03.619Z,8.70
2022-11-25T00:49:07.570Z,8.70
2022-11-25T00:52:15.005Z,8.70
2022-11-25T00:55:18.711Z,8.70
2022-11-25T00:58:22.492Z,8.70
2022-11-25T01:01:26.611Z,8.80
2022-11-25T01:04:30.336Z,8.80
2022-11-25T01:07:35.986Z,8.90
2022-11-25T01:10:39.689Z,8.90
2022-11-25T01:13:43.930Z,8.90
2022-11-25T01:16:47.794Z,8.90
2022-11-25T01:19:51.322Z,8.90
2022-11-25T01:22:58.969Z,9.00
2022-11-25T01:26:05.847Z,9.00
2022-11-25T01:29:15.223Z,9.10
2022-11-25T01:32:18.907Z,9.10
2022-11-25T01:35:22.610Z,9.10
2022-11-25T01:38:28.242Z,9.10
2022-11-25T01:41:34.313Z,9.20
2022-11-25T01:44:40.576Z,9.10
2022-11-25T01:47:44.303Z,9.20
2022-11-25T01:50:49.165Z,9.20
2022-11-25T01:53:57.302Z,9.20
2022-11-25T01:57:04.832Z,9.20
2022-11-25T02:00:10.719Z,9.20
2022-11-25T02:03:29.160Z,9.20
2022-11-25T02:06:37.538Z,9.20
2022-11-25T02:09:45.047Z,9.30
2022-11-25T02:12:50.302Z,9.20
2022-11-25T02:15:54.190Z,9.30
2022-11-25T02:19:02.969Z,9.30
2022-11-25T02:22:11.448Z,9.30
2022-11-25T02:25:22.090Z,9.30
2022-11-25T02:28:28.118Z,9.30
2022-11-25T02:31:32.027Z,9.30
2022-11-25T02:34:37.115Z,9.30
2022-11-25T02:37:40.923Z,9.30
2022-11-25T02:40:51.229Z,9.30
2022-11-25T02:43:55.572Z,9.30
2022-11-25T02:46:59.401Z,9.30
2022-11-25T02:50:03.037Z,9.30
2022-11-25T02:53:07.608Z,9.30
2022-11-25T02:56:16.512Z,9.30
2022-11-25T02:59:20.242Z,9.30
2022-11-25T03:02:24.934Z,9.30
2022-11-25T03:05:29.189Z,9.30
2022-11-25T03:08:32.956Z,9.30
2022-11-25T03:11:57.314Z,9.30
2022-11-25T03:15:00.989Z,9.30
2022-11-25T03:18:07.330Z,9.30
2022-11-25T03:21:11.131Z,9.30
2022-11-25T03:24:14.785Z,9.30
2022-11-25T03:27:20.361Z,9.30
2022-11-25T03:30:27.169Z,9.40
2022-11-25T03:33:34.585Z,9.40
2022-11-25T03:36:38.763Z,9.40
2022-11-25T03:39:43.179Z,9.40
2022-11-25T03:42:49.854Z,9.40
2022-11-25T03:45:54.073Z,9.40
2022-11-25T03:48:57.715Z,9.40
2022-11-25T03:52:02.097Z,9.50
2022-11-25T03:55:07.465Z,9.50
2022-11-25T03:58:14.985Z,9.50
2022-11-25T04:01:18.740Z,9.50
2022-11-25T04:04:23.106Z,9.50
2022-11-25T04:07:27.042Z,9.50
2022-11-25T04:10:32.307Z,9.50
2022-11-25T04:13:36.598Z,9.50
2022-11-25T04:16:40.775Z,9.50
2022-11-25T04:19:44.312Z,9.60
2022-11-25T04:22:48.925Z,9.60
2022-11-25T04:25:55.984Z,9.60
2022-11-25T04:29:08.592Z,9.60
2022-11-25T04:32:12.536Z,9.60
2022-11-25T04:35:16.447Z,9.60
2022-11-25T04:38:23.607Z,9.60
2022-11-25T04:41:27.413Z,9.60
2022-11-25T04:44:33.204Z,9.60
2022-11-25T04:47:37.588Z,9.70
2022-11-25T04:50:41.366Z,9.70
2022-11-25T04:53:49.514Z,9.70
2022-11-25T04:56:53.169Z,9.70
2022-11-25T04:59:58.921Z,9.70
2022-11-25T05:03:02.670Z,9.70
2022-11-25T05:06:09.619Z,9.70
2022-11-25T05:09:14.847Z,9.70
2022-11-25T05:12:23.352Z,9.70
2022-11-25T05:15:29.049Z,9.70
2022-11-25T05:18:33.012Z,9.70
2022-11-25T05:21:36.753Z,9.70
2022-11-25T05:24:40.606Z,9.70
2022-11-25T05:27:44.363Z,9.70
2022-11-25T05:30:52.037Z,9.70
2022-11-25T05:33:55.963Z,9.70
2022-11-25T05:37:00.840Z,9.70
2022-11-25T05:40:06.982Z,9.70
2022-11-25T05:43:25.533Z,9.80
2022-11-25T05:46:31.227Z,9.70
2022-11-25T05:49:35.606Z,9.70
2022-11-25T05:52:39.748Z,9.70
2022-11-25T05:55:43.541Z,9.70
2022-11-25T05:58:56.957Z,9.70
2022-11-25T06:02:08.647Z,9.80
2022-11-25T06:05:12.377Z,9.80
2022-11-25T06:08:16.274Z,9.80
2022-11-25T06:11:20.073Z,9.80
2022-11-25T06:14:23.828Z,9.80
2022-11-25T06:17:30.253Z,9.80
2022-11-25T06:21:03.195Z,9.80
2022-11-25T06:24:07.678Z,9.80
2022-11-25T06:27:11.678Z,9.80
2022-11-25T06:30:17.083Z,9.80
2022-11-25T06:33:29.955Z,9.80
2022-11-25T06:36:37.644Z,9.70
2022-11-25T06:39:41.394Z,9.70
2022-11-25T06:42:45.129Z,9.70
2022-11-25T06:45:48.789Z,9.80
2022-11-25T06:48:54.726Z,9.70
2022-11-25T06:51:58.488Z,9.80
2022-11-25T06:55:02.261Z,9.70
2022-11-25T06:58:28.358Z,9.70
2022-11-25T07:01:31.615Z,9.70
2022-11-25T07:04:38.245Z,9.70
2022-11-25T07:07:42.161Z,9.70
2022-11-25T07:10:45.857Z,9.70
2022-11-25T07:13:52.449Z,9.70
2022-11-25T07:16:56.176Z,9.70
2022-11-25T07:20:01.859Z,9.70
2022-11-25T07:23:05.610Z,9.70
2022-11-25T07:26:11.140Z,9.70
2022-11-25T07:29:51.670Z,9.70
2022-11-25T07:32:40.536Z,9.70
2022-11-25T07:35:46.194Z,9.70
2022-11-25T07:38:50.244Z,9.70
2022-11-25T07:41:55.003Z,9.70
2022-11-25T07:44:58.687Z,9.70
2022-11-25T07:48:34.449Z,9.70
2022-11-25T07:51:42.182Z,9.70
2022-11-25T07:54:45.941Z,9.70
2022-11-25T07:57:49.678Z,9.70
2022-11-25T08:00:53.410Z,9.70
2022-11-25T08:03:57.589Z,9.70
2022-11-25T08:07:03.249Z,9.70
2022-11-25T08:10:08.268Z,9.70
2022-11-25T08:13:12.009Z,9.70
2022-11-25T08:16:20.887Z,9.70
2022-11-25T08:19:29.875Z,9.70
2022-11-25T08:22:37.062Z,9.70
2022-11-25T08:25:43.954Z,9.70
2022-11-25T08:28:51.672Z,9.70
2022-11-25T08:31:55.383Z,9.70
2022-11-25T08:34:59.223Z,9.70
2022-11-25T08:38:05.390Z,9.70
2022-11-25T08:41:11.880Z,9.70
2022-11-25T08:44:15.789Z,9.80
2022-11-25T08:47:19.266Z,9.80
2022-11-25T08:50:23.937Z,9.80
2022-11-25T08:53:29.625Z,9.80
2022-11-25T08:56:33.518Z,9.80
2022-11-25T08:59:37.879Z,9.80
2022-11-25T09:02:41.851Z,9.80
2022-11-25T09:05:57.393Z,9.80
2022-11-25T09:09:05.410Z,9.80
2022-11-25T09:12:09.412Z,9.90
2022-11-25T09:15:13.676Z,9.90
2022-11-25T09:18:19.535Z,9.80
2022-11-25T09:21:24.197Z,9.90
2022-11-25T09:24:29.970Z,9.90
2022-11-25T09:27:33.916Z,9.90
2022-11-25T09:30:38.632Z,9.90
2022-11-25T09:33:42.460Z,9.90
2022-11-25T09:36:46.683Z,10.00
2022-11-25T09:39:55.452Z,10.00
2022-11-25T09:43:19.726Z,10.00
2022-11-25T09:46:45.361Z,10.10
2022-11-25T09:50:09.556Z,10.10
2022-11-25T09:53:22.874Z,10.10
2022-11-25T09:56:36.199Z,10.20
2022-11-25T09:59:45.124Z,10.30
2022-11-25T10:03:00.011Z,10.30
2022-11-25T10:06:06.911Z,10.40
2022-11-25T10:09:15.127Z,10.50
2022-11-25T10:12:29.647Z,10.60
2022-11-25T10:15:38.655Z,10.70
2022-11-25T10:18:47.238Z,10.80
2022-11-25T10:21:51.440Z,10.90
2022-11-25T10:24:58.964Z,11.00
2022-11-25T10:28:14.329Z,11.00
2022-11-25T10:31:20.927Z,11.10
2022-11-25T10:34:31.818Z,11.20
2022-11-25T10:37:41.206Z,11.20
2022-11-25T10:40:46.128Z,11.20
2022-11-25T10:43:51.974Z,11.20
2022-11-25T10:47:14.914Z,11.20
2022-11-25T10:50:27.333Z,11.20
2022-11-25T10:53:32.088Z,11.30
2022-11-25T10:56:45.349Z,11.30
2022-11-25T10:59:59.956Z,11.30
2022-11-25T11:03:16.307Z,11.30
2022-11-25T11:06:38.635Z,11.30
2022-11-25T11:09:42.693Z,11.40
2022-11-25T11:13:02.292Z,11.40
2022-11-25T11:16:25.196Z,11.40
2022-11-25T11:19:31.621Z,11.50
2022-11-25T11:22:36.336Z,11.50
2022-11-25T11:25:41.203Z,11.50
2022-11-25T11:28:46.904Z,11.50
2022-11-25T11:31:59.618Z,11.50
2022-11-25T11:35:08.606Z,11.60
2022-11-25T11:38:27.985Z,11.60
2022-11-25T11:41:39.956Z,11.60
2022-11-25T11:45:02.496Z,11.60
2022-11-25T11:48:14.516Z,11.60
2022-11-25T11:51:28.609Z,11.60
2022-11-25T11:54:35.917Z,11.60
2022-11-25T11:57:50.668Z,11.60
2022-11-25T12:01:07.136Z,11.60
2022-11-25T12:04:20.856Z,11.60
2022-11-25T12:07:31.495Z,11.60
2022-11-25T12:10:39.346Z,11.60
2022-11-25T12:13:49.146Z,11.60
2022-11-25T12:16:58.230Z,11.60
2022-11-25T12:20:08.942Z,11.60
2022-11-25T12:23:17.752Z,11.60
2022-11-25T12:26:28.521Z,11.60
2022-11-25T12:29:37.797Z,11.60
2022-11-25T12:33:03.158Z,11.60
2022-11-25T12:36:13.382Z,11.60
2022-11-25T12:39:26.720Z,11.60
2022-11-25T12:42:33.924Z,11.60
2022-11-25T12:45:37.723Z,11.60
2022-11-25T12:48:43.924Z,11.70
2022-11-25T12:52:18.241Z,11.70
2022-11-25T12:55:25.322Z,11.70
2022-11-25T12:58:48.824Z,11.70
2022-11-25T13:02:12.036Z,11.70
2022-11-25T13:05:41.174Z,11.70
2022-11-25T13:08:59.975Z,11.80
2022-11-25T13:12:28.169Z,11.80
2022-11-25T13:15:37.443Z,11.80
2022-11-25T13:18:44.875Z,11.80
2022-11-25T13:22:07.713Z,11.80
2022-11-25T13:25:26.125Z,11.90
2022-11-25T13:28:33.957Z,11.90
2022-11-25T13:31:59.387Z,11.90
2022-11-25T13:35:36.653Z,12.00
2022-11-25T13:39:01.157Z,12.00
2022-11-25T13:42:06.552Z,12.10
2022-11-25T13:45:27.911Z,12.10
2022-11-25T13:48:36.376Z,12.10
2022-11-25T13:51:49.837Z,12.20
2022-11-25T13:54:55.393Z,12.20
2022-11-25T13:58:22.135Z,12.20
2022-11-25T14:01:30.351Z,12.20
2022-11-25T14:04:49.194Z,12.20
2022-11-25T14:08:07.042Z,12.20
2022-11-25T14:11:50.115Z,12.20
2022-11-25T14:15:17.360Z,12.20
2022-11-25T14:19:21.787Z,12.20
2022-11-25T14:22:26.596Z,12.20
2022-11-25T14:25:35.419Z,12.20
2022-11-25T14:28:45.507Z,12.20
2022-11-25T14:31:53.263Z,12.20
2022-11-25T14:35:05.256Z,12.20
2022-11-25T14:38:15.034Z,12.10
2022-11-25T14:41:24.881Z,12.10
2022-11-25T14:44:35.204Z,12.10
2022-11-25T14:47:39.416Z,12.10
2022-11-25T14:50:59.805Z,12.00
2022-11-25T14:54:04.407Z,12.00
2022-11-25T14:57:09.240Z,11.90
2022-11-25T15:00:16.736Z,11.90
2022-11-25T15:03:22.735Z,11.90
2022-11-25T15:06:30.537Z,11.80
2022-11-25T15:09:40.240Z,11.80
2022-11-25T15:12:48.044Z,11.70
2022-11-25T15:15:55.251Z,11.70
2022-11-25T15:19:01.426Z,11.70
2022-11-25T15:22:23.173Z,11.70
2022-11-25T15:25:27.888Z,11.60
2022-11-25T15:28:36.911Z,11.60
2022-11-25T15:31:41.805Z,11.60
2022-11-25T15:34:46.483Z,11.50
2022-11-25T15:37:53.668Z,11.50
2022-11-25T15:40:57.747Z,11.50
2022-11-25T15:44:04.154Z,11.50
2022-11-25T15:47:17.560Z,11.50
2022-11-25T15:50:24.389Z,11.40
2022-11-25T15:53:33.571Z,11.40
2022-11-25T15:56:40.340Z,11.40
2022-11-25T15:59:48.864Z,11.40
2022-11-25T16:02:57.103Z,11.30
2022-11-25T16:06:02.134Z,11.30
2022-11-25T16:09:22.329Z,11.30
2022-11-25T16:12:26.106Z,11.30
2022-11-25T16:15:45.353Z,11.30
2022-11-25T16:19:11.849Z,11.30
2022-11-25T16:22:18.194Z,11.20
2022-11-25T16:25:24.046Z,11.20
2022-11-25T16:28:27.790Z,11.20
2022-11-25T16:31:31.550Z,11.10
2022-11-25T16:34:35.502Z,11.10
2022-11-25T16:37:42.778Z,11.10
2022-11-25T16:40:52.600Z,11.10
2022-11-25T16:43:58.646Z,11.00
2022-11-25T16:47:05.072Z,11.00
2022-11-25T16:50:15.616Z,11.00
2022-11-25T16:53:19.712Z,11.00
2022-11-25T16:56:29.580Z,10.90
2022-11-25T16:59:37.102Z,10.90
2022-11-25T17:02:41.183Z,10.90
2022-11-25T17:05:45.128Z,10.90
2022-11-25T17:08:48.907Z,10.90
2022-11-25T17:11:57.038Z,10.80
2022-11-25T17:15:04.026Z,10.80
2022-11-25T17:18:09.586Z,10.80
2022-11-25T17:21:14.836Z,10.80
2022-11-25T17:24:21.812Z,10.70
2022-11-25T17:27:30.180Z,10.70
2022-11-25T17:30:34.466Z,10.70
2022-11-25T17:33:41.707Z,10.70
2022-11-25T17:36:46.591Z,10.60
2022-11-25T17:39:52.025Z,10.60
2022-11-25T17:42:58.385Z,10.60
2022-11-25T17:46:02.119Z,10.60
2022-11-25T17:49:07.831Z,10.50
2022-11-25T17:52:11.513Z,10.50
2022-11-25T17:55:16.542Z,10.40
2022-11-25T17:58:22.311Z,10.40
2022-11-25T18:01:26.095Z,10.40
2022-11-25T18:04:33.991Z,10.30
2022-11-25T18:07:37.869Z,10.30
2022-11-25T18:10:41.566Z,10.20
2022-11-25T18:13:49.501Z,10.20
2022-11-25T18:16:53.922Z,10.20
2022-11-25T18:19:57.801Z,10.10
2022-11-25T18:23:02.100Z,10.00
2022-11-25T18:26:06.145Z,10.00
2022-11-25T18:29:15.816Z,9.90
2022-11-25T18:32:19.602Z,9.90
2022-11-25T18:35:25.329Z,9.90
2022-11-25T18:38:29.034Z,9.80
2022-11-25T18:41:32.824Z,9.80
2022-11-25T18:44:43.019Z,9.80
2022-11-25T18:47:47.000Z,9.70
2022-11-25T18:50:51.305Z,9.70
2022-11-25T18:53:54.963Z,9.60
2022-11-25T18:56:58.809Z,9.60
2022-11-25T19:03:30.138Z,9.50
2022-11-25T19:06:33.855Z,9.50
2022-11-25T19:09:37.631Z,9.50
2022-11-25T19:12:43.595Z,9.40
2022-11-25T19:15:49.732Z,9.40
2022-11-25T19:18:53.529Z,9.30
2022-11-25T19:22:00.634Z,9.30
2022-11-25T19:25:04.428Z,9.30
2022-11-25T19:28:08.240Z,9.30
2022-11-25T19:31:14.649Z,9.20
2022-11-25T19:34:27.555Z,9.20
2022-11-25T19:37:34.275Z,9.10
2022-11-25T19:40:39.799Z,9.10
2022-11-25T19:43:43.568Z,9.10
2022-11-25T19:50:21.283Z,9.00
2022-11-25T19:53:28.930Z,9.00
2022-11-25T19:56:37.025Z,8.90
2022-11-25T19:59:41.009Z,9.00
2022-11-25T20:02:46.937Z,8.90
2022-11-25T20:05:52.175Z,8.90
2022-11-25T20:09:01.220Z,8.80
2022-11-25T20:12:21.567Z,8.80
2022-11-25T20:15:26.305Z,8.70
2022-11-25T20:18:32.137Z,8.70
2022-11-25T20:21:39.326Z,8.70
2022-11-25T20:24:43.067Z,8.70
2022-11-25T20:27:46.752Z,8.70
2022-11-25T20:30:51.471Z,8.60
2022-11-25T20:33:57.466Z,8.60
2022-11-25T20:37:01.195Z,8.60
2022-11-25T20:40:05.671Z,8.50
2022-11-25T20:43:20.205Z,8.50
2022-11-25T20:46:25.721Z,8.50
2022-11-25T20:49:33.045Z,8.50
2022-11-25T20:52:38.223Z,8.40
2022-11-25T20:55:42.785Z,8.40
2022-11-25T20:58:47.561Z,8.30
2022-11-25T21:01:52.088Z,8.30
2022-11-25T21:04:57.781Z,8.30
2022-11-25T21:08:02.005Z,8.30
2022-11-25T21:11:06.618Z,8.30
2022-11-25T21:14:15.782Z,8.20
2022-11-25T21:17:20.357Z,8.20
2022-11-25T21:20:26.087Z,8.20
2022-11-25T21:23:33.113Z,8.20
2022-11-25T21:26:36.789Z,8.10
2022-11-25T21:29:42.033Z,8.10
2022-11-25T21:32:45.878Z,8.10
2022-11-25T21:35:51.954Z,8.10
2022-11-25T21:39:05.406Z,8.00
2022-11-25T21:42:19.876Z,8.00
2022-11-25T21:45:23.609Z,8.00
2022-11-25T21:48:29.002Z,8.00
2022-11-25T21:51:34.647Z,7.90
2022-11-25T21:54:38.735Z,7.90
2022-11-25T21:57:43.068Z,7.90
2022-11-25T22:00:50.333Z,7.80
2022-11-25T22:03:54.557Z,7.80
2022-11-25T22:07:00.223Z,7.80
2022-11-25T22:10:03.921Z,7.70
2022-11-25T22:13:07.869Z,7.70
2022-11-25T22:16:14.037Z,7.70
2022-11-25T22:19:22.231Z,7.70
2022-11-25T22:22:28.838Z,7.60
2022-11-25T22:25:34.109Z,7.60
2022-11-25T22:28:39.176Z,7.60
2022-11-25T22:31:43.386Z,7.60
2022-11-25T22:34:47.169Z,7.60
2022-11-25T22:37:55.360Z,7.50
2022-11-25T22:41:02.376Z,7.50
2022-11-25T22:44:06.523Z,7.50
2022-11-25T22:47:17.905Z,7.50
2022-11-25T22:50:25.088Z,7.50
2022-11-25T22:53:30.970Z,7.40
2022-11-25T22:56:34.654Z,7.40
2022-11-25T22:59:38.435Z,7.40
2022-11-25T23:02:42.227Z,7.40
2022-11-25T23:05:46.344Z,7.40
2022-11-25T23:08:51.987Z,7.40
2022-11-25T23:11:55.900Z,7.30
2022-11-25T23:14:59.397Z,7.30
2022-11-25T23:18:05.578Z,7.30
2022-11-25T23:21:16.815Z,7.30
2022-11-25T23:24:22.453Z,7.20
2022-11-25T23:27:26.179Z,7.20
2022-11-25T23:30:29.931Z,7.20
2022-11-25T23:33:38.487Z,7.20
2022-11-25T23:36:46.031Z,7.20
2022-11-25T23:39:54.201Z,7.20
2022-11-25T23:42:58.145Z,7.20
2022-11-25T23:46:01.742Z,7.20
2022-11-25T23:49:07.999Z,7.20
2022-11-25T23:52:15.468Z,7.20
2022-11-25T23:55:26.089Z,7.10
2022-11-25T23:58:29.893Z,7.10
